Weather at Petersburg James A Johnson Airport

Public forecast

Using degrees Fahrenheit for public forecast. Weather courtesy of forecast.io.

Current aviation weather report (METAR) for Petersburg James A Johnson Airport

Retrieved 2020/09/20 18:56 UTC (16 minutes ago):

PAPG 201856Z 00000KT 10SM SCT032 BKN070 12/08 A2990 RMK AO2 SLP127 T01170083

Aviation forecast (TAF) for Petersburg James A Johnson Airport

Retrieved 2020/09/20 18:24 UTC (48 minutes ago):

TAF PAPG 201722Z 2018/2118 VRB03KT P6SM SCT030 BKN060 FM210000 09004KT P6SM -SHRA SCT025 OVC035 FM210300 10004KT 4SM -SHRA BR SCT015 OVC030 FM210900 12002KT 6SM -SHRA BKN015 OVC030 AMD LTD TO CLD VIS AND WIND 2106/2115